createdAt,value
2018-09-06T00:02:11.678Z,29.00
2018-09-06T00:04:40.148Z,29.60
2018-09-06T00:07:08.550Z,28.90
2018-09-06T00:09:37.010Z,28.80
2018-09-06T00:12:05.503Z,27.20
2018-09-06T00:14:33.997Z,25.77
2018-09-06T00:17:02.418Z,26.20
2018-09-06T00:19:30.863Z,25.97
2018-09-06T00:21:59.292Z,25.97
2018-09-06T00:24:27.778Z,27.20
2018-09-06T00:26:56.181Z,26.80
2018-09-06T00:29:24.598Z,26.90
2018-09-06T00:31:53.013Z,25.50
2018-09-06T00:34:21.429Z,26.50
2018-09-06T00:36:49.834Z,26.90
2018-09-06T00:39:18.409Z,26.97
2018-09-06T00:41:46.814Z,27.53
2018-09-06T00:44:15.314Z,26.03
2018-09-06T00:46:43.725Z,26.47
2018-09-06T00:49:12.248Z,25.60
2018-09-06T00:51:40.670Z,25.97
2018-09-06T00:54:09.069Z,26.70
2018-09-06T00:56:37.511Z,23.80
2018-09-06T00:59:05.942Z,26.47
2018-09-06T01:01:34.603Z,25.87
2018-09-06T01:04:03.147Z,24.87
2018-09-06T01:06:31.590Z,25.40
2018-09-06T01:08:59.982Z,24.27
2018-09-06T01:11:28.441Z,23.93
2018-09-06T01:13:56.881Z,23.90
2018-09-06T01:16:25.325Z,24.33
2018-09-06T01:18:53.763Z,24.30
2018-09-06T01:21:22.201Z,25.17
2018-09-06T01:23:50.665Z,24.80
2018-09-06T01:26:19.090Z,23.83
2018-09-06T01:28:47.489Z,25.20
2018-09-06T01:31:16.489Z,25.07
2018-09-06T01:33:44.872Z,25.00
2018-09-06T01:36:18.581Z,25.30
2018-09-06T01:38:47.002Z,24.67
2018-09-06T01:41:15.445Z,26.00
2018-09-06T01:43:43.865Z,25.90
2018-09-06T01:46:12.245Z,25.90
2018-09-06T01:48:40.662Z,25.10
2018-09-06T01:51:09.081Z,26.73
2018-09-06T01:53:37.506Z,24.93
2018-09-06T01:56:05.929Z,25.10
2018-09-06T01:58:34.350Z,26.10
2018-09-06T02:01:02.744Z,25.37
2018-09-06T02:03:31.189Z,24.30
2018-09-06T02:05:59.625Z,24.90
2018-09-06T02:08:28.085Z,22.80
2018-09-06T02:10:56.472Z,24.30
2018-09-06T02:13:24.886Z,25.27
2018-09-06T02:15:53.296Z,23.47
2018-09-06T02:18:21.736Z,24.83
2018-09-06T02:20:50.130Z,23.57
2018-09-06T02:23:18.619Z,23.07
2018-09-06T02:25:47.057Z,25.27
2018-09-06T02:28:15.649Z,23.27
2018-09-06T02:30:44.081Z,23.30
2018-09-06T02:33:12.578Z,22.87
2018-09-06T02:35:41.197Z,22.57
2018-09-06T02:38:09.605Z,23.53
2018-09-06T02:40:39.857Z,23.87
2018-09-06T02:43:10.469Z,22.97
2018-09-06T02:45:38.983Z,21.80
2018-09-06T02:48:07.393Z,22.57
2018-09-06T02:51:43.989Z,21.23
2018-09-06T02:54:12.425Z,20.67
2018-09-06T02:56:40.809Z,21.90
2018-09-06T02:59:09.233Z,22.33
2018-09-06T03:01:37.617Z,20.13
2018-09-06T03:04:06.079Z,20.93
2018-09-06T03:06:34.508Z,21.87
2018-09-06T03:09:02.977Z,20.70
2018-09-06T03:11:36.705Z,20.47
2018-09-06T03:14:05.209Z,20.17
2018-09-06T03:16:33.858Z,19.47
2018-09-06T03:19:02.246Z,19.30
2018-09-06T03:21:30.706Z,19.40
2018-09-06T03:23:59.081Z,21.00
2018-09-06T03:26:27.494Z,20.37
2018-09-06T03:28:55.925Z,19.50
2018-09-06T03:31:24.357Z,21.37
2018-09-06T03:33:52.749Z,20.33
2018-09-06T03:36:21.174Z,19.27
2018-09-06T03:38:49.562Z,19.20
2018-09-06T03:41:17.998Z,19.27
2018-09-06T03:43:46.406Z,19.47
2018-09-06T03:46:14.864Z,18.17
2018-09-06T03:48:43.258Z,17.67
2018-09-06T03:51:11.709Z,18.07
2018-09-06T03:53:40.129Z,18.63
2018-09-06T03:56:08.589Z,19.00
2018-09-06T03:58:36.993Z,18.63
2018-09-06T04:01:05.388Z,18.50
2018-09-06T04:03:33.801Z,18.40
2018-09-06T04:06:02.181Z,17.80
2018-09-06T04:08:30.586Z,17.87
2018-09-06T04:10:58.964Z,17.73
2018-09-06T04:13:27.377Z,17.17
2018-09-06T04:15:55.760Z,16.10
2018-09-06T04:18:24.260Z,16.43
2018-09-06T04:20:52.645Z,16.43
2018-09-06T04:23:21.100Z,16.47
2018-09-06T04:25:49.510Z,16.73
2018-09-06T04:28:17.973Z,16.40
2018-09-06T04:30:46.393Z,17.03
2018-09-06T04:33:14.814Z,16.50
2018-09-06T04:35:43.257Z,16.17
2018-09-06T04:38:11.682Z,16.93
2018-09-06T04:40:40.057Z,15.57
2018-09-06T04:43:08.487Z,16.67
2018-09-06T04:45:36.886Z,15.60
2018-09-06T04:48:05.621Z,15.77
2018-09-06T04:50:34.067Z,15.53
2018-09-06T04:53:02.558Z,15.97
2018-09-06T04:55:30.950Z,14.90
2018-09-06T04:57:59.338Z,15.90
2018-09-06T05:00:27.760Z,16.17
2018-09-06T05:02:56.161Z,16.07
2018-09-06T05:05:24.621Z,16.70
2018-09-06T05:07:52.997Z,15.23
2018-09-06T05:10:21.425Z,15.07
2018-09-06T05:12:49.828Z,15.47
2018-09-06T05:15:18.294Z,15.77
2018-09-06T05:17:46.674Z,16.03
2018-09-06T05:20:15.126Z,15.80
2018-09-06T05:22:43.546Z,16.03
2018-09-06T05:25:12.011Z,15.27
2018-09-06T05:27:40.393Z,15.97
2018-09-06T05:30:08.845Z,15.30
2018-09-06T05:32:37.254Z,15.90
2018-09-06T05:35:05.776Z,17.00
2018-09-06T05:37:34.148Z,15.50
2018-09-06T05:40:02.578Z,16.83
2018-09-06T05:42:30.992Z,15.13
2018-09-06T05:44:59.425Z,16.87
2018-09-06T05:47:27.841Z,15.57
2018-09-06T05:49:56.245Z,16.40
2018-09-06T05:52:24.666Z,16.33
2018-09-06T05:54:53.049Z,16.93
2018-09-06T05:57:21.850Z,15.17
2018-09-06T05:59:50.255Z,16.17
2018-09-06T06:02:18.690Z,15.70
2018-09-06T06:04:47.085Z,15.77
2018-09-06T06:07:15.505Z,16.23
2018-09-06T06:09:43.889Z,15.70
2018-09-06T06:12:12.329Z,15.83
2018-09-06T06:14:40.725Z,16.07
2018-09-06T06:17:09.194Z,15.07
2018-09-06T06:19:37.629Z,16.53
2018-09-06T06:22:06.056Z,15.47
2018-09-06T06:24:34.456Z,16.17
2018-09-06T06:27:02.885Z,16.87
2018-09-06T06:29:31.297Z,15.93
2018-09-06T06:31:59.702Z,15.80
2018-09-06T06:34:28.076Z,15.43
2018-09-06T06:36:56.601Z,16.23
2018-09-06T06:39:25.020Z,16.03
2018-09-06T06:41:53.434Z,15.53
2018-09-06T06:44:21.873Z,16.03
2018-09-06T06:46:50.253Z,14.50
2018-09-06T06:49:18.670Z,12.40
2018-09-06T06:51:47.090Z,13.83
2018-09-06T06:54:15.540Z,14.20
2018-09-06T06:56:43.915Z,14.37
2018-09-06T06:59:12.349Z,13.57
2018-09-06T07:01:40.725Z,13.80
2018-09-06T07:06:43.669Z,12.77
2018-09-06T07:09:12.365Z,12.63
2018-09-06T07:11:40.769Z,13.33
2018-09-06T07:14:09.197Z,13.90
2018-09-06T07:16:37.581Z,14.57
2018-09-06T07:19:06.072Z,14.53
2018-09-06T07:21:34.480Z,14.23
2018-09-06T07:24:02.905Z,14.60
2018-09-06T07:26:31.329Z,13.70
2018-09-06T07:28:59.798Z,14.47
2018-09-06T07:31:28.218Z,14.30
2018-09-06T07:33:56.621Z,13.20
2018-09-06T07:36:25.057Z,14.47
2018-09-06T07:38:53.449Z,14.53
2018-09-06T07:41:21.910Z,15.40
2018-09-06T07:43:50.312Z,15.07
2018-09-06T07:46:18.802Z,14.70
2018-09-06T07:48:47.181Z,16.13
2018-09-06T07:51:15.629Z,15.00
2018-09-06T07:53:44.005Z,14.60
2018-09-06T07:56:12.433Z,15.13
2018-09-06T07:58:40.829Z,14.97
2018-09-06T08:01:09.286Z,16.20
2018-09-06T08:03:37.721Z,15.23
2018-09-06T08:06:06.178Z,16.20
2018-09-06T08:08:34.581Z,15.88
2018-09-06T08:11:02.993Z,14.60
2018-09-06T08:13:31.370Z,14.85
2018-09-06T08:15:59.834Z,15.03
2018-09-06T08:18:28.221Z,15.78
2018-09-06T08:21:03.413Z,16.17
2018-09-06T08:23:31.852Z,16.05
2018-09-06T08:26:00.289Z,15.10
2018-09-06T08:28:28.661Z,15.78
2018-09-06T08:30:57.203Z,15.80
2018-09-06T08:33:25.502Z,15.18
2018-09-06T08:35:53.902Z,14.43
2018-09-06T08:38:28.617Z,14.13
2018-09-06T08:40:57.018Z,14.30
2018-09-06T08:43:25.517Z,13.83
2018-09-06T08:45:53.963Z,14.18
2018-09-06T08:48:22.409Z,13.13
2018-09-06T08:50:50.846Z,12.95
2018-09-06T08:53:19.313Z,13.03
2018-09-06T08:55:47.757Z,13.48
2018-09-06T08:58:16.175Z,13.60
2018-09-06T09:00:48.713Z,12.75
2018-09-06T09:03:17.211Z,12.78
2018-09-06T09:05:45.637Z,12.43
2018-09-06T09:08:14.217Z,13.10
2018-09-06T09:10:42.626Z,12.00
2018-09-06T09:13:11.162Z,12.78
2018-09-06T09:15:39.530Z,12.47
2018-09-06T09:18:07.954Z,12.43
2018-09-06T09:20:36.389Z,13.53
2018-09-06T09:23:04.846Z,12.15
2018-09-06T09:25:33.297Z,12.78
2018-09-06T09:28:01.732Z,12.20
2018-09-06T09:30:30.182Z,13.05
2018-09-06T09:32:58.609Z,13.13
2018-09-06T09:35:27.091Z,12.30
2018-09-06T09:37:55.501Z,12.05
2018-09-06T09:40:23.977Z,12.28
2018-09-06T09:42:52.384Z,12.73
2018-09-06T09:45:20.862Z,13.05
2018-09-06T09:47:49.281Z,12.80
2018-09-06T09:52:46.215Z,12.75
2018-09-06T09:55:14.649Z,12.40
2018-09-06T09:57:43.082Z,12.45
2018-09-06T10:18:26.477Z,12.23
2018-09-06T10:20:54.933Z,12.20
2018-09-06T10:23:23.474Z,12.78
2018-09-06T10:25:51.906Z,13.40
2018-09-06T10:28:20.398Z,12.23
2018-09-06T10:30:48.853Z,13.05
2018-09-06T10:33:17.244Z,13.25
2018-09-06T10:35:45.714Z,13.38
2018-09-06T10:38:14.133Z,12.03
2018-09-06T10:40:42.614Z,12.33
2018-09-06T10:43:11.054Z,12.45
2018-09-06T10:45:39.534Z,12.33
2018-09-06T10:48:07.966Z,13.48
2018-09-06T10:50:36.478Z,13.55
2018-09-06T10:53:04.901Z,13.60
2018-09-06T10:55:33.337Z,12.78
2018-09-06T10:58:01.791Z,13.88
2018-09-06T11:00:30.327Z,12.55
2018-09-06T11:02:59.321Z,12.65
2018-09-06T11:05:27.793Z,13.25
2018-09-06T11:07:56.288Z,13.08
2018-09-06T11:10:24.741Z,11.95
2018-09-06T11:12:53.157Z,13.40
2018-09-06T11:15:22.594Z,12.88
2018-09-06T11:17:51.007Z,13.00
2018-09-06T11:20:23.110Z,12.20
2018-09-06T11:22:51.517Z,12.65
2018-09-06T11:25:20.186Z,12.07
2018-09-06T11:27:48.610Z,12.35
2018-09-06T11:30:17.014Z,12.55
2018-09-06T11:32:45.467Z,11.60
2018-09-06T11:35:13.934Z,12.35
2018-09-06T11:37:42.644Z,12.00
2018-09-06T11:40:11.086Z,11.78
2018-09-06T11:42:39.531Z,11.95
2018-09-06T11:45:08.014Z,12.58
2018-09-06T11:47:36.511Z,11.65
2018-09-06T11:50:06.036Z,12.10
2018-09-06T11:52:34.489Z,14.20
2018-09-06T11:55:02.975Z,12.78
2018-09-06T11:57:31.464Z,12.65
2018-09-06T11:59:59.915Z,13.30
2018-09-06T12:02:28.414Z,12.58
2018-09-06T12:04:56.825Z,13.03
2018-09-06T12:07:25.272Z,11.88
2018-09-06T12:09:53.702Z,11.83
2018-09-06T12:12:22.606Z,11.53
2018-09-06T12:14:51.053Z,10.65
2018-09-06T12:17:19.517Z,12.03
2018-09-06T12:19:47.960Z,11.33
2018-09-06T12:22:16.414Z,11.33
2018-09-06T12:24:44.957Z,12.25
2018-09-06T12:27:13.593Z,11.18
2018-09-06T12:29:42.133Z,11.10
2018-09-06T12:32:10.558Z,10.70
2018-09-06T12:34:39.037Z,11.35
2018-09-06T12:37:12.896Z,11.05
2018-09-06T12:44:55.289Z,10.50
2018-09-06T12:47:23.749Z,11.28
2018-09-06T12:49:52.334Z,11.20
2018-09-06T12:52:20.786Z,10.43
2018-09-06T12:54:49.289Z,10.85
2018-09-06T12:57:17.749Z,10.38
2018-09-06T12:59:46.202Z,10.88
2018-09-06T13:04:49.757Z,10.50
2018-09-06T13:07:18.215Z,10.93
2018-09-06T13:09:46.648Z,10.40
2018-09-06T13:12:15.251Z,11.18
2018-09-06T13:14:43.662Z,10.13
2018-09-06T13:17:12.190Z,10.32
2018-09-06T13:19:40.597Z,11.65
2018-09-06T13:22:09.196Z,11.30
2018-09-06T13:24:37.583Z,10.63
2018-09-06T13:27:06.007Z,10.68
2018-09-06T13:29:34.448Z,11.10
2018-09-06T13:32:02.893Z,10.98
2018-09-06T13:34:31.354Z,10.95
2018-09-06T13:36:59.767Z,10.93
2018-09-06T13:44:35.901Z,11.35
2018-09-06T13:47:04.433Z,11.12
2018-09-06T13:49:33.011Z,11.03
2018-09-06T13:52:01.493Z,11.75
2018-09-06T13:54:32.689Z,10.72
2018-09-06T13:57:01.072Z,10.25
2018-09-06T13:59:29.537Z,11.60
2018-09-06T14:01:58.013Z,10.15
2018-09-06T14:04:26.477Z,11.10
2018-09-06T14:06:54.886Z,11.20
2018-09-06T14:12:04.500Z,11.53
2018-09-06T14:14:32.990Z,11.12
2018-09-06T14:17:01.713Z,11.00
2018-09-06T14:19:30.195Z,11.00
2018-09-06T14:21:58.613Z,10.93
2018-09-06T14:24:27.040Z,11.22
2018-09-06T14:26:55.473Z,11.97
2018-09-06T14:29:23.877Z,11.57
2018-09-06T14:31:52.324Z,10.75
2018-09-06T14:34:20.747Z,12.55
2018-09-06T14:36:49.196Z,11.05
2018-09-06T14:39:17.598Z,11.35
2018-09-06T14:41:46.050Z,11.08
2018-09-06T14:44:14.441Z,11.35
2018-09-06T14:46:42.877Z,11.28
2018-09-06T14:49:11.262Z,11.22
2018-09-06T14:51:39.730Z,11.70
2018-09-06T14:54:08.130Z,10.75
2018-09-06T14:56:36.560Z,12.33
2018-09-06T14:59:05.001Z,11.55
2018-09-06T15:01:33.529Z,10.65
2018-09-06T15:04:01.857Z,11.35
2018-09-06T15:06:30.279Z,11.40
2018-09-06T15:08:58.662Z,12.20
2018-09-06T15:11:27.097Z,11.75
2018-09-06T15:13:55.595Z,13.03
2018-09-06T15:16:23.982Z,11.63
2018-09-06T15:18:52.391Z,11.70
2018-09-06T15:21:20.838Z,11.95
2018-09-06T15:23:49.236Z,10.93
2018-09-06T15:26:17.641Z,10.72
2018-09-06T15:28:46.074Z,11.65
2018-09-06T15:31:14.474Z,12.65
2018-09-06T15:33:42.994Z,11.78
2018-09-06T15:36:11.422Z,12.05
2018-09-06T15:38:40.125Z,11.78
2018-09-06T15:41:08.514Z,11.45
2018-09-06T15:43:36.925Z,11.53
2018-09-06T15:46:05.402Z,11.85
2018-09-06T15:48:33.829Z,11.53
2018-09-06T15:51:02.338Z,11.22
2018-09-06T15:53:30.833Z,11.73
2018-09-06T15:55:59.249Z,12.58
2018-09-06T15:58:27.838Z,11.73
2018-09-06T16:00:56.311Z,11.70
2018-09-06T16:03:24.890Z,11.08
2018-09-06T16:05:53.313Z,10.75
2018-09-06T16:08:21.748Z,11.80
2018-09-06T16:10:50.197Z,11.50
2018-09-06T16:13:18.714Z,10.82
2018-09-06T16:15:47.111Z,11.85
2018-09-06T16:18:15.547Z,12.20
2018-09-06T16:20:43.966Z,10.72
2018-09-06T16:23:12.354Z,11.45
2018-09-06T16:25:41.537Z,11.22
2018-09-06T16:28:10.173Z,12.50
2018-09-06T16:33:12.237Z,11.28
2018-09-06T16:35:40.686Z,11.08
2018-09-06T16:38:09.097Z,11.85
2018-09-06T16:43:11.321Z,11.53
2018-09-06T16:45:39.743Z,10.98
2018-09-06T16:48:08.234Z,11.38
2018-09-06T16:53:10.501Z,11.97
2018-09-06T16:55:39.316Z,11.48
2018-09-06T16:58:07.714Z,11.83
2018-09-06T17:03:10.170Z,12.18
2018-09-06T17:05:38.697Z,11.30
2018-09-06T17:08:07.141Z,11.63
2018-09-06T17:10:35.555Z,11.30
2018-09-06T17:13:04.037Z,11.30
2018-09-06T17:15:32.437Z,11.55
2018-09-06T17:18:00.915Z,12.30
2018-09-06T17:20:29.338Z,12.43
2018-09-06T17:22:57.732Z,11.20
2018-09-06T17:25:26.173Z,10.10
2018-09-06T17:27:54.595Z,10.60
2018-09-06T17:30:29.689Z,10.70
2018-09-06T17:32:58.105Z,10.95
2018-09-06T17:35:28.494Z,11.15
2018-09-06T17:37:56.912Z,11.30
2018-09-06T17:40:25.334Z,11.12
2018-09-06T17:42:53.765Z,11.10
2018-09-06T17:45:22.229Z,10.18
2018-09-06T17:47:50.612Z,10.55
2018-09-06T17:50:19.082Z,10.05
2018-09-06T17:52:47.550Z,9.38
2018-09-06T17:55:16.042Z,10.60
2018-09-06T17:57:44.469Z,10.28
2018-09-06T18:00:13.009Z,10.10
2018-09-06T18:02:41.429Z,9.95
2018-09-06T18:05:11.560Z,10.60
2018-09-06T18:07:40.049Z,10.40
2018-09-06T18:12:42.462Z,10.05
2018-09-06T18:15:10.842Z,9.75
2018-09-06T18:17:39.371Z,9.65
2018-09-06T18:20:07.786Z,9.93
2018-09-06T18:22:36.349Z,9.40
2018-09-06T18:25:04.913Z,9.58
2018-09-06T18:27:33.385Z,10.13
2018-09-06T18:30:01.898Z,10.05
2018-09-06T18:32:30.361Z,9.43
2018-09-06T18:34:58.840Z,9.78
2018-09-06T18:37:27.299Z,10.13
2018-09-06T18:45:05.240Z,9.95
2018-09-06T18:47:34.036Z,10.23
2018-09-06T18:50:02.477Z,10.10
2018-09-06T18:52:32.155Z,10.95
2018-09-06T18:55:00.739Z,10.58
2018-09-06T18:57:29.389Z,10.88
2018-09-06T18:59:57.921Z,11.70
2018-09-06T19:02:26.465Z,12.73
2018-09-06T19:04:55.577Z,11.90
2018-09-06T19:07:24.329Z,11.88
2018-09-06T19:15:01.198Z,10.85
2018-09-06T19:17:30.166Z,10.25
2018-09-06T19:19:59.247Z,10.15
2018-09-06T19:22:27.706Z,9.78
2018-09-06T19:24:56.682Z,9.80
2018-09-06T19:27:25.354Z,9.95
2018-09-06T19:29:53.895Z,9.53
2018-09-06T19:32:22.847Z,9.30
2018-09-06T19:34:51.350Z,8.45
2018-09-06T19:37:19.920Z,7.12
2018-09-06T19:39:48.837Z,7.20
2018-09-06T19:42:17.337Z,8.55
2018-09-06T19:44:46.025Z,6.95
2018-09-06T19:47:15.053Z,7.33
2018-09-06T19:49:43.707Z,7.72
2018-09-06T19:52:12.706Z,6.93
2018-09-06T19:54:44.074Z,8.23
2018-09-06T19:57:13.094Z,7.63
2018-09-06T19:59:42.466Z,7.97
2018-09-06T20:02:10.972Z,7.97
2018-09-06T20:04:39.605Z,8.93
2018-09-06T20:07:08.330Z,8.27
2018-09-06T20:09:38.100Z,7.80
2018-09-06T20:12:06.715Z,7.80
2018-09-06T20:14:35.609Z,7.30
2018-09-06T20:17:05.358Z,7.43
2018-09-06T20:19:34.239Z,7.20
2018-09-06T20:22:02.727Z,6.50
2018-09-06T20:24:31.411Z,6.80
2018-09-06T20:27:00.210Z,6.60
2018-09-06T20:29:28.684Z,6.87
2018-09-06T20:31:57.212Z,6.23
2018-09-06T20:34:25.599Z,7.17
2018-09-06T20:36:54.076Z,5.90
2018-09-06T20:39:22.599Z,6.13
2018-09-06T20:41:51.090Z,6.03
2018-09-06T20:44:19.507Z,6.63
2018-09-06T20:46:47.939Z,6.53
2018-09-06T20:49:16.617Z,5.90
2018-09-06T20:51:46.124Z,5.70
2018-09-06T20:54:14.559Z,5.87
2018-09-06T20:56:43.010Z,6.07
2018-09-06T20:59:11.501Z,5.07
2018-09-06T21:01:39.972Z,5.57
2018-09-06T21:04:08.538Z,4.30
2018-09-06T21:06:37.009Z,4.30
2018-09-06T21:11:40.766Z,4.10
2018-09-06T21:14:09.225Z,4.03
2018-09-06T21:16:37.616Z,4.03
2018-09-06T21:19:06.097Z,3.63
2018-09-06T21:21:34.513Z,4.00
2018-09-06T21:24:02.908Z,3.57
2018-09-06T21:26:31.326Z,3.67
2018-09-06T21:28:59.713Z,3.43
2018-09-06T21:31:28.133Z,3.40
2018-09-06T21:33:56.537Z,3.70
2018-09-06T21:36:25.970Z,3.30
2018-09-06T21:38:54.361Z,3.60
2018-09-06T21:41:22.898Z,3.77
2018-09-06T21:43:51.317Z,3.47
2018-09-06T21:46:19.721Z,2.93
2018-09-06T21:59:28.105Z,3.07
2018-09-06T22:01:56.609Z,3.23
2018-09-06T22:04:25.036Z,3.20
2018-09-06T22:06:53.437Z,3.23
2018-09-06T22:09:21.932Z,3.70
2018-09-06T22:11:50.369Z,3.90
2018-09-06T22:14:18.870Z,3.80
2018-09-06T22:16:47.265Z,3.90
2018-09-06T22:19:15.725Z,4.10
2018-09-06T22:21:44.333Z,3.93
2018-09-06T22:24:12.788Z,4.30
2018-09-06T22:26:42.253Z,4.00
2018-09-06T22:29:10.681Z,4.20
2018-09-06T22:31:39.181Z,4.20
2018-09-06T22:34:07.633Z,4.77
2018-09-06T22:36:36.026Z,4.77
2018-09-06T22:39:06.001Z,4.80
2018-09-06T22:41:34.685Z,4.60
2018-09-06T22:44:03.110Z,4.33
2018-09-06T22:46:31.720Z,4.60
2018-09-06T22:49:00.169Z,4.60
2018-09-06T22:51:28.601Z,4.33
2018-09-06T22:53:57.025Z,4.33
2018-09-06T22:56:25.483Z,4.60
2018-09-06T22:58:53.951Z,4.80
2018-09-06T23:01:22.393Z,4.53
2018-09-06T23:03:53.297Z,4.70
2018-09-06T23:06:23.734Z,4.57
2018-09-06T23:08:52.754Z,4.87
2018-09-06T23:11:21.299Z,4.83
2018-09-06T23:13:50.138Z,4.40
2018-09-06T23:16:19.270Z,4.50
2018-09-06T23:18:54.548Z,4.00
2018-09-06T23:21:23.479Z,4.47
2018-09-06T23:23:52.056Z,4.00
2018-09-06T23:26:20.717Z,4.00
2018-09-06T23:28:56.041Z,3.97
2018-09-06T23:31:24.559Z,3.97
2018-09-06T23:33:53.196Z,4.20
2018-09-06T23:36:23.598Z,3.43
2018-09-06T23:38:58.943Z,4.20
2018-09-06T23:41:28.331Z,3.70
2018-09-06T23:43:56.867Z,4.07
2018-09-06T23:46:25.570Z,3.40
2018-09-06T23:48:54.090Z,3.37
2018-09-06T23:51:22.542Z,3.20
2018-09-06T23:53:50.990Z,3.10
2018-09-06T23:56:19.406Z,3.07
2018-09-06T23:58:47.909Z,2.97
